Terminal Aerodrome Forecast
Issued by NWS Charleston, SC

Home | Current Version | Previous Version | Text Only | Print | Product List | Glossary On
Versions: 1 2 3 4 5 6 7 8 9 10 11 12 13 14 15 16 17 18 19 20 21 22 23 24 25 26 27 28 29 30 31 32 33
000
FTUS42 KCHS 231535 AAD
TAFSAV
TAF AMD
KSAV 231535Z 2316/2412 23010KT P6SM SHRA FEW007 BKN016
     FM231800 19010KT 4SM -TSRA BR SCT020 BKN030CB
      TEMPO 2318/2322 2SM TSRA BR BKN020CB
     FM240100 25006KT P6SM SCT020 BKN040=

USA.gov is the U.S. government's official web portal to all federal, state and local government web resources and services.